sensor_id;sensor_type;location;lat;lon;timestamp;P1;durP1;ratioP1;P2;durP2;ratioP2
21591;SDS011;10958;50.892;3.992;2023-08-01T00:04:08;5.15;;;1.90;;
21591;SDS011;10958;50.892;3.992;2023-08-01T00:06:34;5.82;;;2.10;;
21591;SDS011;10958;50.892;3.992;2023-08-01T00:09:00;4.25;;;2.30;;
21591;SDS011;10958;50.892;3.992;2023-08-01T00:11:26;9.15;;;2.40;;
21591;SDS011;10958;50.892;3.992;2023-08-01T00:13:52;5.45;;;2.28;;
21591;SDS011;10958;50.892;3.992;2023-08-01T00:16:18;4.68;;;2.28;;
21591;SDS011;10958;50.892;3.992;2023-08-01T00:18:44;5.10;;;2.00;;
21591;SDS011;10958;50.892;3.992;2023-08-01T00:21:10;6.30;;;2.35;;
21591;SDS011;10958;50.892;3.992;2023-08-01T00:23:37;5.38;;;2.63;;
21591;SDS011;10958;50.892;3.992;2023-08-01T00:26:03;2.30;;;2.08;;
21591;SDS011;10958;50.892;3.992;2023-08-01T00:28:29;7.40;;;2.63;;
21591;SDS011;10958;50.892;3.992;2023-08-01T00:31:03;7.63;;;2.30;;
21591;SDS011;10958;50.892;3.992;2023-08-01T00:33:30;4.60;;;2.58;;
21591;SDS011;10958;50.892;3.992;2023-08-01T00:36:02;4.75;;;2.45;;
21591;SDS011;10958;50.892;3.992;2023-08-01T00:38:30;6.53;;;2.88;;
21591;SDS011;10958;50.892;3.992;2023-08-01T00:41:09;7.88;;;2.97;;
21591;SDS011;10958;50.892;3.992;2023-08-01T00:43:44;6.50;;;2.97;;
21591;SDS011;10958;50.892;3.992;2023-08-01T00:46:21;6.97;;;3.40;;
21591;SDS011;10958;50.892;3.992;2023-08-01T00:48:47;8.68;;;3.03;;
21591;SDS011;10958;50.892;3.992;2023-08-01T00:51:13;5.70;;;3.05;;
21591;SDS011;10958;50.892;3.992;2023-08-01T00:53:43;7.20;;;3.25;;
21591;SDS011;10958;50.892;3.992;2023-08-01T00:56:11;6.97;;;3.28;;
21591;SDS011;10958;50.892;3.992;2023-08-01T00:58:39;8.30;;;3.33;;
21591;SDS011;10958;50.892;3.992;2023-08-01T01:01:05;6.22;;;3.08;;
21591;SDS011;10958;50.892;3.992;2023-08-01T01:03:31;6.85;;;3.38;;
21591;SDS011;10958;50.892;3.992;2023-08-01T01:08:47;8.18;;;3.20;;
21591;SDS011;10958;50.892;3.992;2023-08-01T01:11:15;6.38;;;3.30;;
21591;SDS011;10958;50.892;3.992;2023-08-01T01:13:41;8.68;;;4.20;;
21591;SDS011;10958;50.892;3.992;2023-08-01T01:16:07;8.57;;;3.85;;
21591;SDS011;10958;50.892;3.992;2023-08-01T01:18:36;9.52;;;3.70;;
21591;SDS011;10958;50.892;3.992;2023-08-01T01:21:02;5.90;;;3.55;;
21591;SDS011;10958;50.892;3.992;2023-08-01T01:23:28;11.73;;;3.78;;
21591;SDS011;10958;50.892;3.992;2023-08-01T01:28:31;10.65;;;4.60;;
21591;SDS011;10958;50.892;3.992;2023-08-01T01:31:00;9.82;;;4.18;;
21591;SDS011;10958;50.892;3.992;2023-08-01T01:33:38;15.00;;;4.18;;
21591;SDS011;10958;50.892;3.992;2023-08-01T01:36:07;12.43;;;4.65;;
21591;SDS011;10958;50.892;3.992;2023-08-01T01:38:33;9.02;;;4.40;;
21591;SDS011;10958;50.892;3.992;2023-08-01T01:41:04;7.07;;;5.05;;
21591;SDS011;10958;50.892;3.992;2023-08-01T01:43:30;9.20;;;5.00;;
21591;SDS011;10958;50.892;3.992;2023-08-01T01:45:56;11.65;;;5.20;;
21591;SDS011;10958;50.892;3.992;2023-08-01T01:48:22;9.20;;;5.65;;
21591;SDS011;10958;50.892;3.992;2023-08-01T01:50:47;10.23;;;4.95;;
21591;SDS011;10958;50.892;3.992;2023-08-01T01:53:15;11.57;;;6.05;;
21591;SDS011;10958;50.892;3.992;2023-08-01T01:55:43;12.88;;;6.10;;
21591;SDS011;10958;50.892;3.992;2023-08-01T01:58:09;11.47;;;6.20;;
21591;SDS011;10958;50.892;3.992;2023-08-01T02:00:35;10.43;;;6.05;;
21591;SDS011;10958;50.892;3.992;2023-08-01T02:03:01;12.82;;;5.82;;
21591;SDS011;10958;50.892;3.992;2023-08-01T02:05:28;9.52;;;5.82;;
21591;SDS011;10958;50.892;3.992;2023-08-01T02:07:56;9.52;;;6.13;;
21591;SDS011;10958;50.892;3.992;2023-08-01T02:10:22;11.20;;;5.87;;
21591;SDS011;10958;50.892;3.992;2023-08-01T02:12:48;16.17;;;5.90;;
21591;SDS011;10958;50.892;3.992;2023-08-01T02:15:14;11.65;;;5.25;;
21591;SDS011;10958;50.892;3.992;2023-08-01T02:17:39;14.48;;;5.57;;
21591;SDS011;10958;50.892;3.992;2023-08-01T02:20:05;10.10;;;5.53;;
21591;SDS011;10958;50.892;3.992;2023-08-01T02:22:32;13.70;;;5.85;;
21591;SDS011;10958;50.892;3.992;2023-08-01T02:24:58;14.93;;;5.55;;
21591;SDS011;10958;50.892;3.992;2023-08-01T02:27:24;10.18;;;5.97;;
21591;SDS011;10958;50.892;3.992;2023-08-01T02:29:50;17.27;;;5.68;;
21591;SDS011;10958;50.892;3.992;2023-08-01T02:32:16;10.27;;;5.28;;
21591;SDS011;10958;50.892;3.992;2023-08-01T02:34:43;17.65;;;6.30;;
21591;SDS011;10958;50.892;3.992;2023-08-01T02:37:08;11.55;;;5.78;;
21591;SDS011;10958;50.892;3.992;2023-08-01T02:39:35;14.48;;;6.10;;
21591;SDS011;10958;50.892;3.992;2023-08-01T02:42:00;13.38;;;5.97;;
21591;SDS011;10958;50.892;3.992;2023-08-01T02:44:28;10.45;;;5.85;;
21591;SDS011;10958;50.892;3.992;2023-08-01T02:46:54;17.90;;;5.82;;
21591;SDS011;10958;50.892;3.992;2023-08-01T02:49:20;10.73;;;5.28;;
21591;SDS011;10958;50.892;3.992;2023-08-01T02:51:45;12.75;;;6.50;;
21591;SDS011;10958;50.892;3.992;2023-08-01T02:54:11;13.82;;;5.95;;
21591;SDS011;10958;50.892;3.992;2023-08-01T02:56:37;13.35;;;5.07;;
21591;SDS011;10958;50.892;3.992;2023-08-01T02:59:09;14.00;;;6.15;;
21591;SDS011;10958;50.892;3.992;2023-08-01T03:01:37;9.80;;;5.85;;
21591;SDS011;10958;50.892;3.992;2023-08-01T03:04:05;15.85;;;5.65;;
21591;SDS011;10958;50.892;3.992;2023-08-01T03:06:32;12.93;;;5.70;;
21591;SDS011;10958;50.892;3.992;2023-08-01T03:08:59;13.90;;;5.95;;
21591;SDS011;10958;50.892;3.992;2023-08-01T03:11:25;11.45;;;5.75;;
21591;SDS011;10958;50.892;3.992;2023-08-01T03:13:51;12.00;;;5.60;;
21591;SDS011;10958;50.892;3.992;2023-08-01T03:16:17;17.35;;;5.82;;
21591;SDS011;10958;50.892;3.992;2023-08-01T03:18:43;15.00;;;5.50;;
21591;SDS011;10958;50.892;3.992;2023-08-01T03:21:10;14.57;;;5.68;;
21591;SDS011;10958;50.892;3.992;2023-08-01T03:23:36;11.90;;;5.97;;
21591;SDS011;10958;50.892;3.992;2023-08-01T03:26:02;15.52;;;6.60;;
21591;SDS011;10958;50.892;3.992;2023-08-01T03:28:30;14.23;;;5.73;;
21591;SDS011;10958;50.892;3.992;2023-08-01T03:33:32;12.45;;;5.75;;
21591;SDS011;10958;50.892;3.992;2023-08-01T03:36:11;12.65;;;6.05;;
21591;SDS011;10958;50.892;3.992;2023-08-01T03:38:37;11.68;;;6.05;;
21591;SDS011;10958;50.892;3.992;2023-08-01T03:41:06;16.30;;;6.38;;
21591;SDS011;10958;50.892;3.992;2023-08-01T03:43:32;12.95;;;5.97;;
21591;SDS011;10958;50.892;3.992;2023-08-01T03:45:59;16.30;;;6.30;;
21591;SDS011;10958;50.892;3.992;2023-08-01T03:48:24;13.15;;;6.05;;
21591;SDS011;10958;50.892;3.992;2023-08-01T03:50:52;12.77;;;6.30;;
21591;SDS011;10958;50.892;3.992;2023-08-01T03:53:18;15.23;;;5.75;;
21591;SDS011;10958;50.892;3.992;2023-08-01T03:55:44;12.05;;;5.97;;
21591;SDS011;10958;50.892;3.992;2023-08-01T03:58:10;13.73;;;5.88;;
21591;SDS011;10958;50.892;3.992;2023-08-01T04:00:35;15.25;;;5.80;;
21591;SDS011;10958;50.892;3.992;2023-08-01T04:03:03;14.13;;;6.15;;
21591;SDS011;10958;50.892;3.992;2023-08-01T04:05:29;15.07;;;6.40;;
21591;SDS011;10958;50.892;3.992;2023-08-01T04:07:56;18.08;;;6.30;;
21591;SDS011;10958;50.892;3.992;2023-08-01T04:10:23;15.70;;;5.80;;
21591;SDS011;10958;50.892;3.992;2023-08-01T04:12:49;14.20;;;6.90;;
21591;SDS011;10958;50.892;3.992;2023-08-01T04:15:17;13.05;;;6.20;;
21591;SDS011;10958;50.892;3.992;2023-08-01T04:17:43;18.05;;;6.15;;
21591;SDS011;10958;50.892;3.992;2023-08-01T04:20:09;15.93;;;6.57;;
21591;SDS011;10958;50.892;3.992;2023-08-01T04:22:35;12.38;;;6.72;;
21591;SDS011;10958;50.892;3.992;2023-08-01T04:25:15;18.92;;;6.85;;
21591;SDS011;10958;50.892;3.992;2023-08-01T04:27:41;15.15;;;6.75;;
21591;SDS011;10958;50.892;3.992;2023-08-01T04:30:07;15.25;;;6.05;;
21591;SDS011;10958;50.892;3.992;2023-08-01T04:32:35;15.30;;;6.38;;
21591;SDS011;10958;50.892;3.992;2023-08-01T04:35:02;15.13;;;6.20;;
21591;SDS011;10958;50.892;3.992;2023-08-01T04:37:27;15.50;;;6.07;;
21591;SDS011;10958;50.892;3.992;2023-08-01T04:39:53;13.70;;;5.40;;
21591;SDS011;10958;50.892;3.992;2023-08-01T04:42:19;15.98;;;6.28;;
21591;SDS011;10958;50.892;3.992;2023-08-01T04:44:47;16.45;;;6.60;;
21591;SDS011;10958;50.892;3.992;2023-08-01T04:47:14;16.27;;;5.90;;
21591;SDS011;10958;50.892;3.992;2023-08-01T04:49:40;16.00;;;6.63;;
21591;SDS011;10958;50.892;3.992;2023-08-01T04:52:06;12.75;;;6.53;;
21591;SDS011;10958;50.892;3.992;2023-08-01T04:54:34;12.63;;;5.75;;
21591;SDS011;10958;50.892;3.992;2023-08-01T04:57:00;12.20;;;5.53;;
21591;SDS011;10958;50.892;3.992;2023-08-01T04:59:27;13.80;;;6.15;;
21591;SDS011;10958;50.892;3.992;2023-08-01T05:01:52;17.52;;;5.72;;
21591;SDS011;10958;50.892;3.992;2023-08-01T05:04:18;12.32;;;5.43;;
21591;SDS011;10958;50.892;3.992;2023-08-01T05:06:45;19.33;;;6.00;;
21591;SDS011;10958;50.892;3.992;2023-08-01T05:09:10;15.40;;;6.00;;
21591;SDS011;10958;50.892;3.992;2023-08-01T05:11:36;16.05;;;5.30;;
21591;SDS011;10958;50.892;3.992;2023-08-01T05:14:04;15.50;;;6.03;;
21591;SDS011;10958;50.892;3.992;2023-08-01T05:16:31;11.57;;;5.63;;
21591;SDS011;10958;50.892;3.992;2023-08-01T05:18:57;12.43;;;6.05;;
21591;SDS011;10958;50.892;3.992;2023-08-01T05:21:26;9.90;;;5.38;;
21591;SDS011;10958;50.892;3.992;2023-08-01T05:23:51;11.98;;;5.82;;
21591;SDS011;10958;50.892;3.992;2023-08-01T05:26:20;15.53;;;5.97;;
21591;SDS011;10958;50.892;3.992;2023-08-01T05:28:45;14.98;;;5.80;;
21591;SDS011;10958;50.892;3.992;2023-08-01T05:31:11;13.23;;;5.53;;
21591;SDS011;10958;50.892;3.992;2023-08-01T05:33:37;14.18;;;5.53;;
21591;SDS011;10958;50.892;3.992;2023-08-01T05:36:03;17.38;;;6.18;;
21591;SDS011;10958;50.892;3.992;2023-08-01T05:38:32;16.83;;;5.55;;
21591;SDS011;10958;50.892;3.992;2023-08-01T05:40:59;18.98;;;5.20;;
21591;SDS011;10958;50.892;3.992;2023-08-01T05:43:24;14.82;;;4.95;;
21591;SDS011;10958;50.892;3.992;2023-08-01T05:45:50;13.05;;;4.72;;
21591;SDS011;10958;50.892;3.992;2023-08-01T05:48:16;11.90;;;5.05;;
21591;SDS011;10958;50.892;3.992;2023-08-01T05:50:41;14.88;;;4.95;;
21591;SDS011;10958;50.892;3.992;2023-08-01T05:53:07;13.23;;;4.90;;
21591;SDS011;10958;50.892;3.992;2023-08-01T05:55:35;14.80;;;5.15;;
21591;SDS011;10958;50.892;3.992;2023-08-01T05:58:01;14.10;;;4.63;;
21591;SDS011;10958;50.892;3.992;2023-08-01T06:00:29;13.55;;;5.40;;
21591;SDS011;10958;50.892;3.992;2023-08-01T06:02:58;9.38;;;4.30;;
21591;SDS011;10958;50.892;3.992;2023-08-01T06:05:23;14.25;;;4.50;;
21591;SDS011;10958;50.892;3.992;2023-08-01T06:07:49;12.07;;;4.72;;
21591;SDS011;10958;50.892;3.992;2023-08-01T06:10:14;14.07;;;4.97;;
21591;SDS011;10958;50.892;3.992;2023-08-01T06:12:40;16.70;;;5.63;;
21591;SDS011;10958;50.892;3.992;2023-08-01T06:15:08;13.55;;;4.95;;
21591;SDS011;10958;50.892;3.992;2023-08-01T06:17:34;12.57;;;5.13;;
21591;SDS011;10958;50.892;3.992;2023-08-01T06:20:00;10.70;;;5.18;;
21591;SDS011;10958;50.892;3.992;2023-08-01T06:24:54;13.48;;;5.10;;
21591;SDS011;10958;50.892;3.992;2023-08-01T06:27:21;12.35;;;4.90;;
21591;SDS011;10958;50.892;3.992;2023-08-01T06:29:46;12.13;;;4.95;;
21591;SDS011;10958;50.892;3.992;2023-08-01T06:32:12;14.57;;;5.97;;
21591;SDS011;10958;50.892;3.992;2023-08-01T06:34:38;10.82;;;4.50;;
21591;SDS011;10958;50.892;3.992;2023-08-01T06:37:05;13.98;;;5.43;;
21591;SDS011;10958;50.892;3.992;2023-08-01T06:39:30;10.85;;;4.45;;
21591;SDS011;10958;50.892;3.992;2023-08-01T06:41:57;9.85;;;4.40;;
21591;SDS011;10958;50.892;3.992;2023-08-01T06:44:26;13.85;;;4.75;;
21591;SDS011;10958;50.892;3.992;2023-08-01T06:46:51;9.80;;;4.10;;
21591;SDS011;10958;50.892;3.992;2023-08-01T06:49:17;14.45;;;4.93;;
21591;SDS011;10958;50.892;3.992;2023-08-01T06:51:43;10.98;;;4.60;;
21591;SDS011;10958;50.892;3.992;2023-08-01T06:54:09;10.18;;;4.50;;
21591;SDS011;10958;50.892;3.992;2023-08-01T06:56:35;8.27;;;4.00;;
21591;SDS011;10958;50.892;3.992;2023-08-01T06:59:00;11.57;;;4.38;;
21591;SDS011;10958;50.892;3.992;2023-08-01T07:01:31;12.05;;;4.13;;
21591;SDS011;10958;50.892;3.992;2023-08-01T07:04:02;10.40;;;3.63;;
21591;SDS011;10958;50.892;3.992;2023-08-01T07:06:28;9.13;;;4.03;;
21591;SDS011;10958;50.892;3.992;2023-08-01T07:08:53;12.75;;;4.15;;
21591;SDS011;10958;50.892;3.992;2023-08-01T07:11:22;13.88;;;5.18;;
21591;SDS011;10958;50.892;3.992;2023-08-01T07:13:47;12.75;;;4.30;;
21591;SDS011;10958;50.892;3.992;2023-08-01T07:16:13;10.25;;;4.85;;
21591;SDS011;10958;50.892;3.992;2023-08-01T07:18:39;11.48;;;4.93;;
21591;SDS011;10958;50.892;3.992;2023-08-01T07:21:05;10.85;;;4.40;;
21591;SDS011;10958;50.892;3.992;2023-08-01T07:23:33;12.98;;;4.22;;
21591;SDS011;10958;50.892;3.992;2023-08-01T07:26:00;7.50;;;4.13;;
21591;SDS011;10958;50.892;3.992;2023-08-01T07:28:26;10.50;;;3.92;;
21591;SDS011;10958;50.892;3.992;2023-08-01T07:31:01;9.45;;;3.97;;
21591;SDS011;10958;50.892;3.992;2023-08-01T07:33:29;15.25;;;4.85;;
21591;SDS011;10958;50.892;3.992;2023-08-01T07:35:58;14.57;;;4.75;;
21591;SDS011;10958;50.892;3.992;2023-08-01T07:38:24;11.55;;;3.85;;
21591;SDS011;10958;50.892;3.992;2023-08-01T07:40:54;12.32;;;4.78;;
21591;SDS011;10958;50.892;3.992;2023-08-01T07:43:21;12.13;;;4.05;;
21591;SDS011;10958;50.892;3.992;2023-08-01T07:45:47;11.00;;;4.25;;
21591;SDS011;10958;50.892;3.992;2023-08-01T07:48:15;11.97;;;3.60;;
21591;SDS011;10958;50.892;3.992;2023-08-01T07:50:43;11.25;;;3.95;;
21591;SDS011;10958;50.892;3.992;2023-08-01T07:53:09;11.77;;;3.70;;
21591;SDS011;10958;50.892;3.992;2023-08-01T07:55:34;13.68;;;4.03;;
21591;SDS011;10958;50.892;3.992;2023-08-01T07:58:00;8.80;;;2.83;;
21591;SDS011;10958;50.892;3.992;2023-08-01T08:00:26;8.05;;;3.40;;
21591;SDS011;10958;50.892;3.992;2023-08-01T08:02:52;10.60;;;3.45;;
21591;SDS011;10958;50.892;3.992;2023-08-01T08:05:18;8.80;;;3.00;;
21591;SDS011;10958;50.892;3.992;2023-08-01T08:07:44;8.60;;;3.10;;
21591;SDS011;10958;50.892;3.992;2023-08-01T08:10:10;11.32;;;3.00;;
21591;SDS011;10958;50.892;3.992;2023-08-01T08:12:39;7.43;;;2.70;;
21591;SDS011;10958;50.892;3.992;2023-08-01T08:17:33;8.50;;;3.50;;
21591;SDS011;10958;50.892;3.992;2023-08-01T08:19:59;7.07;;;2.88;;
21591;SDS011;10958;50.892;3.992;2023-08-01T08:22:28;9.57;;;2.83;;
21591;SDS011;10958;50.892;3.992;2023-08-01T08:24:56;10.02;;;3.28;;
21591;SDS011;10958;50.892;3.992;2023-08-01T08:27:25;9.68;;;3.30;;
21591;SDS011;10958;50.892;3.992;2023-08-01T08:29:57;5.78;;;2.60;;
21591;SDS011;10958;50.892;3.992;2023-08-01T08:32:23;6.55;;;2.67;;
21591;SDS011;10958;50.892;3.992;2023-08-01T08:34:57;9.70;;;2.88;;
21591;SDS011;10958;50.892;3.992;2023-08-01T08:37:26;7.20;;;2.60;;
21591;SDS011;10958;50.892;3.992;2023-08-01T08:39:52;5.35;;;2.35;;
21591;SDS011;10958;50.892;3.992;2023-08-01T08:42:18;4.13;;;2.10;;
21591;SDS011;10958;50.892;3.992;2023-08-01T08:45:32;8.70;;;2.88;;
21591;SDS011;10958;50.892;3.992;2023-08-01T08:47:49;7.20;;;2.05;;
21591;SDS011;10958;50.892;3.992;2023-08-01T08:50:20;9.07;;;3.15;;
21591;SDS011;10958;50.892;3.992;2023-08-01T08:53:11;9.65;;;2.67;;
21591;SDS011;10958;50.892;3.992;2023-08-01T08:55:39;6.97;;;2.20;;
21591;SDS011;10958;50.892;3.992;2023-08-01T08:58:05;8.88;;;2.33;;
21591;SDS011;10958;50.892;3.992;2023-08-01T09:00:32;8.57;;;1.80;;
21591;SDS011;10958;50.892;3.992;2023-08-01T09:02:58;3.80;;;2.22;;
21591;SDS011;10958;50.892;3.992;2023-08-01T09:05:27;10.65;;;2.53;;
21591;SDS011;10958;50.892;3.992;2023-08-01T09:07:59;6.68;;;2.30;;
21591;SDS011;10958;50.892;3.992;2023-08-01T09:10:30;5.13;;;2.47;;
21591;SDS011;10958;50.892;3.992;2023-08-01T09:12:56;6.18;;;2.58;;
21591;SDS011;10958;50.892;3.992;2023-08-01T09:15:22;5.03;;;2.35;;
21591;SDS011;10958;50.892;3.992;2023-08-01T09:17:54;6.22;;;2.30;;
21591;SDS011;10958;50.892;3.992;2023-08-01T09:20:26;8.40;;;2.72;;
21591;SDS011;10958;50.892;3.992;2023-08-01T09:22:55;7.78;;;2.33;;
21591;SDS011;10958;50.892;3.992;2023-08-01T09:25:30;8.50;;;2.50;;
21591;SDS011;10958;50.892;3.992;2023-08-01T09:27:57;6.43;;;2.33;;
21591;SDS011;10958;50.892;3.992;2023-08-01T09:30:23;9.60;;;2.35;;
21591;SDS011;10958;50.892;3.992;2023-08-01T09:32:53;5.47;;;2.22;;
21591;SDS011;10958;50.892;3.992;2023-08-01T09:35:20;8.30;;;2.10;;
21591;SDS011;10958;50.892;3.992;2023-08-01T09:37:48;7.93;;;2.22;;
21591;SDS011;10958;50.892;3.992;2023-08-01T09:40:14;8.55;;;2.17;;
21591;SDS011;10958;50.892;3.992;2023-08-01T09:42:44;14.70;;;2.40;;
21591;SDS011;10958;50.892;3.992;2023-08-01T09:45:22;5.53;;;2.22;;
21591;SDS011;10958;50.892;3.992;2023-08-01T09:47:55;8.40;;;2.33;;
21591;SDS011;10958;50.892;3.992;2023-08-01T09:53:23;4.03;;;1.52;;
21591;SDS011;10958;50.892;3.992;2023-08-01T09:56:22;5.10;;;1.70;;
21591;SDS011;10958;50.892;3.992;2023-08-01T09:58:55;5.13;;;1.85;;
21591;SDS011;10958;50.892;3.992;2023-08-01T10:14:07;4.63;;;1.67;;
21591;SDS011;10958;50.892;3.992;2023-08-01T10:17:49;6.93;;;1.77;;
21591;SDS011;10958;50.892;3.992;2023-08-01T10:20:52;5.03;;;2.00;;
21591;SDS011;10958;50.892;3.992;2023-08-01T10:26:54;7.88;;;1.70;;
21591;SDS011;10958;50.892;3.992;2023-08-01T10:33:05;3.40;;;1.40;;
21591;SDS011;10958;50.892;3.992;2023-08-01T10:35:49;4.30;;;1.90;;
21591;SDS011;10958;50.892;3.992;2023-08-01T10:38:43;8.15;;;2.35;;
21591;SDS011;10958;50.892;3.992;2023-08-01T10:41:36;5.17;;;1.90;;
21591;SDS011;10958;50.892;3.992;2023-08-01T10:47:27;7.35;;;1.95;;
21591;SDS011;10958;50.892;3.992;2023-08-01T10:49:57;5.97;;;1.80;;
21591;SDS011;10958;50.892;3.992;2023-08-01T10:52:40;6.25;;;1.75;;
21591;SDS011;10958;50.892;3.992;2023-08-01T11:00:58;7.18;;;2.08;;
21591;SDS011;10958;50.892;3.992;2023-08-01T11:03:37;4.70;;;1.70;;
21591;SDS011;10958;50.892;3.992;2023-08-01T11:06:07;3.95;;;1.55;;
21591;SDS011;10958;50.892;3.992;2023-08-01T11:08:39;6.30;;;1.60;;
21591;SDS011;10958;50.892;3.992;2023-08-01T11:11:11;5.78;;;1.40;;
21591;SDS011;10958;50.892;3.992;2023-08-01T11:14:02;5.20;;;1.58;;
21591;SDS011;10958;50.892;3.992;2023-08-01T11:16:55;5.18;;;1.45;;
21591;SDS011;10958;50.892;3.992;2023-08-01T11:19:59;6.07;;;1.58;;
21591;SDS011;10958;50.892;3.992;2023-08-01T11:23:26;8.68;;;1.90;;
21591;SDS011;10958;50.892;3.992;2023-08-01T11:26:16;5.53;;;1.83;;
21591;SDS011;10958;50.892;3.992;2023-08-01T11:29:00;6.55;;;1.75;;
21591;SDS011;10958;50.892;3.992;2023-08-01T11:31:56;6.38;;;2.00;;
21591;SDS011;10958;50.892;3.992;2023-08-01T11:34:49;4.38;;;1.33;;
21591;SDS011;10958;50.892;3.992;2023-08-01T11:37:25;5.15;;;1.50;;
21591;SDS011;10958;50.892;3.992;2023-08-01T11:40:38;3.17;;;1.10;;
21591;SDS011;10958;50.892;3.992;2023-08-01T11:43:18;6.60;;;1.42;;
21591;SDS011;10958;50.892;3.992;2023-08-01T11:46:29;4.13;;;1.33;;
21591;SDS011;10958;50.892;3.992;2023-08-01T11:49:13;3.95;;;1.15;;
21591;SDS011;10958;50.892;3.992;2023-08-01T11:52:00;4.22;;;1.33;;
21591;SDS011;10958;50.892;3.992;2023-08-01T11:54:44;7.07;;;1.40;;
21591;SDS011;10958;50.892;3.992;2023-08-01T11:57:40;4.40;;;1.40;;
21591;SDS011;10958;50.892;3.992;2023-08-01T12:09:24;2.45;;;1.20;;
21591;SDS011;10958;50.892;3.992;2023-08-01T12:11:57;3.67;;;1.25;;
21591;SDS011;10958;50.892;3.992;2023-08-01T12:17:49;5.00;;;1.00;;
21591;SDS011;10958;50.892;3.992;2023-08-01T12:24:03;5.35;;;1.30;;
21591;SDS011;10958;50.892;3.992;2023-08-01T12:26:37;5.35;;;1.30;;
21591;SDS011;10958;50.892;3.992;2023-08-01T12:29:24;4.00;;;1.30;;
21591;SDS011;10958;50.892;3.992;2023-08-01T12:32:03;6.35;;;1.17;;
21591;SDS011;10958;50.892;3.992;2023-08-01T12:35:05;4.93;;;1.40;;
21591;SDS011;10958;50.892;3.992;2023-08-01T12:37:37;3.63;;;1.25;;
21591;SDS011;10958;50.892;3.992;2023-08-01T12:40:17;6.22;;;1.40;;
21591;SDS011;10958;50.892;3.992;2023-08-01T12:42:57;6.70;;;1.50;;
21591;SDS011;10958;50.892;3.992;2023-08-01T12:45:26;6.28;;;1.80;;
21591;SDS011;10958;50.892;3.992;2023-08-01T12:47:55;3.50;;;1.42;;
21591;SDS011;10958;50.892;3.992;2023-08-01T12:50:21;7.45;;;1.40;;
21591;SDS011;10958;50.892;3.992;2023-08-01T12:52:49;4.13;;;1.23;;
21591;SDS011;10958;50.892;3.992;2023-08-01T12:55:24;4.80;;;1.70;;
21591;SDS011;10958;50.892;3.992;2023-08-01T13:04:51;4.40;;;1.40;;
21591;SDS011;10958;50.892;3.992;2023-08-01T13:07:47;4.95;;;1.35;;
21591;SDS011;10958;50.892;3.992;2023-08-01T13:10:41;4.55;;;1.25;;
21591;SDS011;10958;50.892;3.992;2023-08-01T13:13:12;6.18;;;1.45;;
21591;SDS011;10958;50.892;3.992;2023-08-01T13:15:42;6.45;;;1.52;;
21591;SDS011;10958;50.892;3.992;2023-08-01T13:18:09;6.65;;;1.77;;
21591;SDS011;10958;50.892;3.992;2023-08-01T13:21:00;5.95;;;1.88;;
21591;SDS011;10958;50.892;3.992;2023-08-01T13:23:32;5.18;;;1.60;;
21591;SDS011;10958;50.892;3.992;2023-08-01T13:26:19;7.43;;;1.58;;
21591;SDS011;10958;50.892;3.992;2023-08-01T13:28:48;4.03;;;1.60;;
21591;SDS011;10958;50.892;3.992;2023-08-01T13:31:16;4.13;;;1.48;;
21591;SDS011;10958;50.892;3.992;2023-08-01T13:33:42;4.28;;;1.33;;
21591;SDS011;10958;50.892;3.992;2023-08-01T13:36:10;5.70;;;1.63;;
21591;SDS011;10958;50.892;3.992;2023-08-01T13:38:35;4.82;;;1.17;;
21591;SDS011;10958;50.892;3.992;2023-08-01T13:41:03;5.50;;;1.47;;
21591;SDS011;10958;50.892;3.992;2023-08-01T13:43:29;3.80;;;1.55;;
21591;SDS011;10958;50.892;3.992;2023-08-01T13:45:55;4.03;;;1.48;;
21591;SDS011;10958;50.892;3.992;2023-08-01T13:48:21;4.38;;;1.08;;
21591;SDS011;10958;50.892;3.992;2023-08-01T13:50:46;5.35;;;1.25;;
21591;SDS011;10958;50.892;3.992;2023-08-01T13:53:14;7.85;;;1.65;;
21591;SDS011;10958;50.892;3.992;2023-08-01T13:55:41;5.93;;;1.25;;
21591;SDS011;10958;50.892;3.992;2023-08-01T13:58:07;3.33;;;1.20;;
21591;SDS011;10958;50.892;3.992;2023-08-01T14:00:35;6.85;;;1.13;;
21591;SDS011;10958;50.892;3.992;2023-08-01T14:03:00;4.28;;;1.23;;
21591;SDS011;10958;50.892;3.992;2023-08-01T14:05:27;6.43;;;1.25;;
21591;SDS011;10958;50.892;3.992;2023-08-01T14:07:53;4.47;;;1.20;;
21591;SDS011;10958;50.892;3.992;2023-08-01T14:10:19;5.15;;;1.52;;
21591;SDS011;10958;50.892;3.992;2023-08-01T14:12:45;5.53;;;1.48;;
21591;SDS011;10958;50.892;3.992;2023-08-01T14:15:11;4.65;;;1.15;;
21591;SDS011;10958;50.892;3.992;2023-08-01T14:17:38;6.13;;;1.58;;
21591;SDS011;10958;50.892;3.992;2023-08-01T14:20:03;4.25;;;1.52;;
21591;SDS011;10958;50.892;3.992;2023-08-01T14:22:30;3.88;;;1.33;;
21591;SDS011;10958;50.892;3.992;2023-08-01T14:24:56;5.28;;;1.63;;
21591;SDS011;10958;50.892;3.992;2023-08-01T14:27:22;6.10;;;1.45;;
21591;SDS011;10958;50.892;3.992;2023-08-01T14:29:48;5.40;;;1.52;;
21591;SDS011;10958;50.892;3.992;2023-08-01T14:34:47;8.73;;;1.40;;
21591;SDS011;10958;50.892;3.992;2023-08-01T14:37:40;5.40;;;1.35;;
21591;SDS011;10958;50.892;3.992;2023-08-01T14:40:34;5.53;;;1.60;;
21591;SDS011;10958;50.892;3.992;2023-08-01T14:43:09;8.70;;;2.05;;
21591;SDS011;10958;50.892;3.992;2023-08-01T14:45:53;7.35;;;1.90;;
21591;SDS011;10958;50.892;3.992;2023-08-01T14:48:31;6.47;;;1.77;;
21591;SDS011;10958;50.892;3.992;2023-08-01T14:50:57;8.27;;;1.90;;
21591;SDS011;10958;50.892;3.992;2023-08-01T14:53:25;6.80;;;1.85;;
21591;SDS011;10958;50.892;3.992;2023-08-01T14:56:00;6.70;;;1.98;;
21591;SDS011;10958;50.892;3.992;2023-08-01T14:58:54;7.45;;;2.03;;
21591;SDS011;10958;50.892;3.992;2023-08-01T15:02:11;9.07;;;2.30;;
21591;SDS011;10958;50.892;3.992;2023-08-01T15:07:35;6.53;;;1.90;;
21591;SDS011;10958;50.892;3.992;2023-08-01T15:10:21;7.88;;;2.20;;
21591;SDS011;10958;50.892;3.992;2023-08-01T15:13:20;8.60;;;2.00;;
21591;SDS011;10958;50.892;3.992;2023-08-01T15:18:47;8.73;;;2.40;;
21591;SDS011;10958;50.892;3.992;2023-08-01T15:21:12;7.82;;;1.98;;
21591;SDS011;10958;50.892;3.992;2023-08-01T15:23:38;9.15;;;1.85;;
21591;SDS011;10958;50.892;3.992;2023-08-01T15:26:14;7.28;;;1.60;;
21591;SDS011;10958;50.892;3.992;2023-08-01T15:32:01;4.93;;;1.83;;
21591;SDS011;10958;50.892;3.992;2023-08-01T15:37:23;8.23;;;2.53;;
21591;SDS011;10958;50.892;3.992;2023-08-01T15:40:12;8.35;;;2.03;;
21591;SDS011;10958;50.892;3.992;2023-08-01T15:42:41;6.30;;;2.03;;
21591;SDS011;10958;50.892;3.992;2023-08-01T15:51:17;8.07;;;1.98;;
21591;SDS011;10958;50.892;3.992;2023-08-01T15:53:57;6.88;;;1.90;;
21591;SDS011;10958;50.892;3.992;2023-08-01T15:56:28;15.20;;;2.20;;
21591;SDS011;10958;50.892;3.992;2023-08-01T15:59:16;5.70;;;1.63;;
21591;SDS011;10958;50.892;3.992;2023-08-01T16:01:59;9.55;;;2.15;;
21591;SDS011;10958;50.892;3.992;2023-08-01T16:04:46;3.53;;;1.55;;
21591;SDS011;10958;50.892;3.992;2023-08-01T16:07:21;6.05;;;1.40;;
21591;SDS011;10958;50.892;3.992;2023-08-01T16:09:53;3.85;;;1.30;;
21591;SDS011;10958;50.892;3.992;2023-08-01T16:12:35;5.73;;;1.70;;
21591;SDS011;10958;50.892;3.992;2023-08-01T16:15:11;5.60;;;1.40;;
21591;SDS011;10958;50.892;3.992;2023-08-01T16:17:40;5.63;;;1.40;;
21591;SDS011;10958;50.892;3.992;2023-08-01T16:20:20;5.53;;;1.55;;
21591;SDS011;10958;50.892;3.992;2023-08-01T16:22:52;4.78;;;1.67;;
21591;SDS011;10958;50.892;3.992;2023-08-01T16:28:01;6.22;;;1.40;;
21591;SDS011;10958;50.892;3.992;2023-08-01T16:30:45;5.03;;;1.65;;
21591;SDS011;10958;50.892;3.992;2023-08-01T16:33:44;6.88;;;1.75;;
21591;SDS011;10958;50.892;3.992;2023-08-01T16:36:10;8.05;;;1.92;;
21591;SDS011;10958;50.892;3.992;2023-08-01T16:38:39;6.72;;;2.00;;
21591;SDS011;10958;50.892;3.992;2023-08-01T16:41:08;7.15;;;1.92;;